Time;durP1;ratioP1;P1;durP2;ratioP2;P2;SDS_P1;SDS_P2;PMS_P1;PMS_P2;Temp;Humidity;BMP_temperature;BMP_pressure;BME280_temperature;BME280_humidity;BME280_pressure;Samples;Min_cycle;Max_cycle;Signal;HPM_P1;HPM_P2
2022/02/12 00:00:48;;;;;;;8.83;4.37;;;;;;;1.98;94.48;101568.48;1636985;87;25764;-76
2022/02/12 00:03:15;;;;;;;12.60;4.10;;;;;;;1.98;93.88;101579.06;1636626;87;28271;-76
2022/02/12 00:05:42;;;;;;;7.95;3.58;;;;;;;1.96;93.78;101587.57;1632340;87;26451;-76
2022/02/12 00:08:08;;;;;;;6.75;3.02;;;;;;;1.95;93.47;101602.19;1621596;88;25962;-76
2022/02/12 00:10:34;;;;;;;7.00;3.60;;;;;;;1.92;93.06;101617.80;1618687;88;25849;-76
2022/02/12 00:13:01;;;;;;;4.25;2.45;;;;;;;1.80;93.44;101611.17;1618201;87;25830;-76
2022/02/12 00:15:27;;;;;;;4.97;2.72;;;;;;;1.68;93.27;101610.71;1618555;88;27339;-76
2022/02/12 00:17:56;;;;;;;6.10;3.12;;;;;;;1.57;93.66;101628.61;1618083;88;26359;-76
2022/02/12 00:20:22;;;;;;;3.55;1.72;;;;;;;1.52;93.38;101628.06;1618389;88;25924;-77
2022/02/12 00:22:48;;;;;;;4.25;1.45;;;;;;;1.47;92.89;101636.80;1618280;87;25822;-76
2022/02/12 00:25:15;;;;;;;3.83;1.60;;;;;;;1.42;92.95;101643.70;1618359;88;25736;-76
2022/02/12 00:27:42;;;;;;;7.10;1.75;;;;;;;1.40;93.23;101658.80;1618446;88;27436;-76
2022/02/12 00:30:10;;;;;;;3.67;1.80;;;;;;;1.33;93.28;101665.42;1618354;86;25911;-76
2022/02/12 00:32:38;;;;;;;3.85;1.82;;;;;;;1.28;93.55;101655.62;1618037;88;25761;-76
2022/02/12 00:35:05;;;;;;;3.42;1.67;;;;;;;1.27;93.81;101667.16;1618281;87;25934;-76
2022/02/12 00:37:31;;;;;;;3.60;1.90;;;;;;;1.26;93.82;101676.50;1618873;88;25782;-77
2022/02/12 00:39:58;;;;;;;4.95;1.72;;;;;;;1.24;93.91;101679.22;1618308;88;26937;-76
2022/02/12 00:42:26;;;;;;;3.72;1.87;;;;;;;1.25;93.97;101684.88;1618103;88;26565;-77
2022/02/12 00:44:53;;;;;;;5.87;2.20;;;;;;;1.22;94.00;101689.03;1618407;86;25789;-77
2022/02/12 00:47:20;;;;;;;3.55;1.57;;;;;;;1.21;94.06;101699.23;1618228;87;25863;-76
2022/02/12 00:49:47;;;;;;;4.45;2.12;;;;;;;1.21;94.09;101701.88;1618283;88;26492;-76
2022/02/12 00:52:14;;;;;;;3.58;2.02;;;;;;;1.22;94.17;101708.83;1619312;88;28310;-77
2022/02/12 00:54:40;;;;;;;3.62;2.20;;;;;;;1.22;94.11;101706.19;1618005;87;25989;-77
2022/02/12 00:57:07;;;;;;;4.42;2.70;;;;;;;1.24;93.97;101713.53;1618353;86;25976;-77
2022/02/12 00:59:33;;;;;;;3.27;2.22;;;;;;;1.27;93.68;101713.80;1618296;88;25737;-77
2022/02/12 01:01:59;;;;;;;5.45;3.08;;;;;;;1.27;93.37;101723.89;1618440;88;26537;-77
2022/02/12 01:04:26;;;;;;;6.28;2.70;;;;;;;1.28;93.41;101727.39;1618570;87;27575;-77
2022/02/12 01:06:52;;;;;;;4.45;2.62;;;;;;;1.29;93.30;101723.78;1645318;86;26017;-76
2022/02/12 01:09:18;;;;;;;6.90;2.30;;;;;;;1.32;93.39;101732.38;1656373;86;26011;-77
2022/02/12 01:11:44;;;;;;;8.50;3.00;;;;;;;1.33;93.14;101739.33;1656120;86;25847;-77
2022/02/12 01:14:12;;;;;;;5.67;2.25;;;;;;;1.32;92.93;101746.03;1656786;86;25781;-77
2022/02/12 01:16:40;;;;;;;4.90;2.35;;;;;;;1.32;92.98;101748.67;1656528;86;28293;-77
2022/02/12 01:19:06;;;;;;;5.70;2.50;;;;;;;1.30;92.72;101750.11;1656894;86;26561;-76
2022/02/12 01:21:32;;;;;;;7.15;2.50;;;;;;;1.27;92.71;101760.84;1664632;84;25775;-77
2022/02/12 01:23:59;;;;;;;5.12;2.37;;;;;;;1.27;92.72;101760.84;1649458;86;26608;-76
2022/02/12 01:26:25;;;;;;;5.35;2.45;;;;;;;1.27;92.41;101771.88;1661050;86;25869;-77
2022/02/12 01:28:51;;;;;;;7.83;2.52;;;;;;;1.26;92.43;101768.38;1622891;88;28656;-77
2022/02/12 01:31:17;;;;;;;7.03;2.40;;;;;;;1.25;92.51;101779.04;1630229;87;25925;-77
2022/02/12 01:33:44;;;;;;;7.85;2.10;;;;;;;1.23;92.48;101783.11;1629698;87;26701;-77
2022/02/12 01:36:10;;;;;;;4.10;1.87;;;;;;;1.23;92.39;101785.75;1630067;87;26239;-77
2022/02/12 01:38:38;;;;;;;4.33;2.75;;;;;;;1.23;92.17;101789.70;1630239;87;26111;-76
2022/02/12 01:41:04;;;;;;;5.85;1.98;;;;;;;1.21;91.77;101798.20;1630154;87;27460;-77
2022/02/12 01:43:32;;;;;;;4.78;1.87;;;;;;;1.18;91.62;101798.38;1629578;87;25787;-76
2022/02/12 01:45:58;;;;;;;4.47;2.10;;;;;;;1.18;91.87;101813.36;1629953;87;25830;-77
2022/02/12 01:48:24;;;;;;;6.72;2.42;;;;;;;1.17;91.30;101811.22;1629844;87;25911;-77
2022/02/12 01:50:51;;;;;;;3.75;1.80;;;;;;;1.16;91.07;101823.16;1630294;87;25856;-77
2022/02/12 01:53:25;;;;;;;4.03;2.08;;;;;;;1.14;91.02;101821.95;1629772;87;28273;-76
2022/02/12 01:55:53;;;;;;;3.15;2.05;;;;;;;1.12;90.76;101817.70;1630001;87;25945;-76
2022/02/12 01:58:19;;;;;;;3.02;1.72;;;;;;;1.09;90.59;101824.02;1605744;87;26534;-76
2022/02/12 02:00:45;;;;;;;3.08;2.08;;;;;;;1.07;90.21;101834.31;1630165;87;26299;-77
2022/02/12 02:03:13;;;;;;;4.10;2.45;;;;;;;1.05;90.27;101840.16;1629805;87;25919;-77
2022/02/12 02:05:40;;;;;;;4.08;2.27;;;;;;;1.02;90.44;101835.92;1630198;86;28382;-77
2022/02/12 02:08:06;;;;;;;4.92;2.40;;;;;;;1.02;90.52;101841.20;1656827;86;25323;-77
2022/02/12 02:10:33;;;;;;;5.60;1.87;;;;;;;1.01;89.97;101851.36;1631663;86;25803;-76
2022/02/12 02:12:59;;;;;;;5.70;2.20;;;;;;;0.99;89.76;101863.80;1656605;86;25921;-77
2022/02/12 02:15:25;;;;;;;4.90;2.15;;;;;;;0.96;89.99;101871.92;1656767;86;25275;-77
2022/02/12 02:17:52;;;;;;;4.12;2.15;;;;;;;0.96;89.86;101885.11;1656702;86;27534;-76
2022/02/12 02:20:18;;;;;;;5.15;2.00;;;;;;;0.95;90.17;101889.14;1656830;86;25843;-76
2022/02/12 02:22:57;;;;;;;3.87;2.05;;;;;;;0.93;90.17;101894.98;1656814;86;25903;-77
2022/02/12 02:25:24;;;;;;;4.97;2.00;;;;;;;0.91;90.11;101897.73;1657175;86;26459;-78
2022/02/12 02:27:51;;;;;;;3.02;1.77;;;;;;;0.90;90.07;101907.06;1629725;86;25751;-77
2022/02/12 02:30:21;;;;;;;3.77;1.90;;;;;;;0.88;89.96;101910.27;1618649;88;27455;-76
2022/02/12 02:32:47;;;;;;;3.83;1.98;;;;;;;0.84;89.99;101910.89;1618153;88;26177;-77
2022/02/12 02:35:18;;;;;;;5.08;2.17;;;;;;;0.82;89.91;101906.66;1618602;87;25833;-76
2022/02/12 02:37:48;;;;;;;7.25;2.65;;;;;;;0.81;89.95;101906.29;1618330;88;25529;-76
2022/02/12 02:40:19;;;;;;;3.70;2.00;;;;;;;0.76;89.86;101909.20;1618066;88;25321;-78
2022/02/12 02:42:47;;;;;;;4.25;1.67;;;;;;;0.73;90.01;101911.55;1618235;88;27479;-77
2022/02/12 02:45:15;;;;;;;6.70;2.30;;;;;;;0.69;89.85;101919.73;1619552;88;25610;-77
2022/02/12 02:47:42;;;;;;;5.40;1.82;;;;;;;0.67;90.04;101925.56;1618345;88;25565;-76
2022/02/12 02:56:00;;;;;;;4.15;1.70;;;;;;;0.62;90.02;101952.20;1618299;88;27507;-77
2022/02/12 02:58:44;;;;;;;4.60;2.00;;;;;;;0.57;90.06;101952.96;1620420;87;25860;-77
2022/02/12 03:01:14;;;;;;;7.60;2.25;;;;;;;0.56;90.24;101955.20;1606801;89;25912;-77
2022/02/12 03:03:45;;;;;;;5.15;2.17;;;;;;;0.55;90.16;101957.48;1643781;86;25871;-77
2022/02/12 03:06:12;;;;;;;;;;;;;;;0.55;90.25;101960.58;1673543;84;25931;-79
2022/02/12 03:08:39;;;;;;;4.42;1.87;;;;;;;0.57;90.23;101966.14;1696461;83;27391;-77
2022/02/12 03:11:08;;;;;;;3.52;1.80;;;;;;;0.55;90.14;101973.30;1696436;83;25684;-77
2022/02/12 03:13:34;;;;;;;4.78;1.87;;;;;;;0.53;90.18;101978.27;1697439;83;25698;-77
2022/02/12 03:16:01;;;;;;;5.78;2.55;;;;;;;0.51;90.06;101988.88;1696614;83;25874;-77
2022/02/12 03:18:28;;;;;;;6.85;2.47;;;;;;;0.49;90.01;101989.44;1696026;83;26484;-76
2022/02/12 03:20:55;;;;;;;4.75;2.33;;;;;;;0.43;89.89;101994.22;1696828;83;28249;-77
2022/02/12 03:23:21;;;;;;;3.52;1.40;;;;;;;0.41;90.10;101997.41;1696131;83;25960;-76
2022/02/12 03:25:49;;;;;;;5.10;2.00;;;;;;;0.42;90.15;102003.08;1696555;84;25826;-76
2022/02/12 03:28:15;;;;;;;2.95;1.60;;;;;;;0.38;89.93;102002.87;1669369;83;25831;-76
2022/02/12 03:30:45;;;;;;;4.10;1.82;;;;;;;0.34;89.82;102013.22;1665258;84;25857;-77
2022/02/12 03:33:13;;;;;;;7.10;1.70;;;;;;;0.31;89.86;102016.01;1665225;86;27467;-77
2022/02/12 03:35:40;;;;;;;5.45;2.15;;;;;;;0.30;89.88;102020.91;1665401;85;25826;-77
2022/02/12 03:38:13;;;;;;;8.98;1.55;;;;;;;0.34;90.14;102025.08;1665276;86;25734;-77
2022/02/12 03:40:44;;;;;;;5.15;1.90;;;;;;;0.35;90.19;102034.20;1665486;86;26325;-76
2022/02/12 03:43:11;;;;;;;4.72;1.70;;;;;;;0.34;89.97;102040.39;1665290;85;25717;-77
2022/02/12 03:45:39;;;;;;;7.15;2.00;;;;;;;0.32;90.02;102038.31;1665333;85;27429;-77
2022/02/12 03:48:06;;;;;;;5.03;1.92;;;;;;;0.28;90.02;102041.23;1665440;85;25954;-77
2022/02/12 03:50:34;;;;;;;5.75;2.30;;;;;;;0.26;90.19;102043.94;1665470;86;25951;-76
2022/02/12 03:53:04;;;;;;;5.15;2.40;;;;;;;0.26;90.44;102044.39;1665268;86;26254;-76
2022/02/12 03:55:31;;;;;;;5.83;1.82;;;;;;;0.28;90.49;102051.28;1665834;86;25736;-77
2022/02/12 03:57:57;;;;;;;10.13;2.30;;;;;;;0.26;90.25;102070.28;1665164;84;28408;-77
2022/02/12 04:00:24;;;;;;;5.17;2.30;;;;;;;0.25;90.51;102069.06;1664384;85;26479;-77
2022/02/12 04:02:50;;;;;;;6.83;2.20;;;;;;;0.22;90.45;102075.34;1664017;86;26662;-76
2022/02/12 04:05:17;;;;;;;7.40;2.25;;;;;;;0.22;90.35;102077.98;1664333;86;26628;-77
2022/02/12 04:07:44;;;;;;;7.80;2.27;;;;;;;0.16;90.27;102083.59;1691125;84;25780;-77
2022/02/12 04:10:15;;;;;;;6.53;2.22;;;;;;;0.13;90.45;102083.75;1695760;84;27520;-77
2022/02/12 04:12:42;;;;;;;6.03;2.35;;;;;;;0.10;90.64;102090.98;1695828;84;25941;-77
2022/02/12 04:15:10;;;;;;;9.33;3.30;;;;;;;0.08;90.72;102097.66;1695651;83;25846;-77
2022/02/12 04:17:37;;;;;;;5.33;2.08;;;;;;;0.09;90.92;102102.44;1695561;84;26720;-77
2022/02/12 04:20:11;;;;;;;8.98;2.65;;;;;;;0.09;90.90;102113.83;1695919;84;25799;-76
2022/02/12 04:22:38;;;;;;;6.08;2.17;;;;;;;0.10;90.88;102110.28;1695433;84;28282;-77
2022/02/12 04:25:08;;;;;;;8.63;2.45;;;;;;;0.06;90.84;102111.39;1695512;84;25746;-77
2022/02/12 04:27:35;;;;;;;8.78;3.00;;;;;;;0.06;90.87;102121.92;1677108;84;26408;-77
2022/02/12 04:30:05;;;;;;;9.05;2.62;;;;;;;0.05;90.85;102125.94;1673524;84;25823;-77
2022/02/12 04:32:32;;;;;;;6.05;2.50;;;;;;;0.03;90.79;102124.71;1673911;84;26008;-77
2022/02/12 04:34:59;;;;;;;5.55;2.10;;;;;;;0.02;90.78;102123.02;1677484;84;27488;-77
2022/02/12 04:37:26;;;;;;;3.75;2.37;;;;;;;-0.02;90.78;102121.46;1677008;84;25835;-76
2022/02/12 04:39:53;;;;;;;10.78;2.70;;;;;;;-0.04;90.94;102125.50;1667005;84;26036;-77
2022/02/12 04:42:19;;;;;;;5.78;2.47;;;;;;;-0.07;91.08;102122.19;1667435;85;26357;-77
2022/02/12 04:44:48;;;;;;;8.23;2.90;;;;;;;-0.10;91.24;102122.34;1673687;83;25825;-77
2022/02/12 04:47:16;;;;;;;5.53;2.35;;;;;;;-0.06;91.17;102129.14;1670758;84;27517;-77
2022/02/12 04:49:44;;;;;;;7.15;3.30;;;;;;;-0.09;91.10;102133.28;1674021;84;26240;-77
2022/02/12 04:52:14;;;;;;;9.88;2.55;;;;;;;-0.13;91.05;102129.94;1679959;84;25297;-77
2022/02/12 04:54:41;;;;;;;8.15;3.17;;;;;;;-0.11;91.17;102147.00;1667420;85;26512;-78
2022/02/12 04:57:08;;;;;;;6.22;2.40;;;;;;;-0.10;91.37;102146.05;1667947;85;26568;-77
2022/02/12 04:59:35;;;;;;;7.03;2.92;;;;;;;-0.11;91.27;102146.50;1667271;85;27524;-76
2022/02/12 05:02:02;;;;;;;9.15;3.05;;;;;;;-0.13;91.07;102151.49;1671443;84;25924;-77
2022/02/12 05:04:28;;;;;;;6.60;2.47;;;;;;;-0.15;91.09;102150.73;1674401;84;25772;-76
2022/02/12 05:06:55;;;;;;;10.15;3.42;;;;;;;-0.18;91.18;102153.05;1651940;86;25868;-77
2022/02/12 05:09:21;;;;;;;7.08;2.87;;;;;;;-0.17;91.27;102159.17;1663990;86;25769;-77
2022/02/12 05:11:50;;;;;;;6.15;3.60;;;;;;;-0.15;91.33;102167.84;1663505;86;27460;-76
2022/02/12 05:14:19;;;;;;;6.70;2.87;;;;;;;-0.17;91.16;102164.44;1677703;84;25971;-77
2022/02/12 05:16:46;;;;;;;6.22;3.25;;;;;;;-0.16;91.27;102169.62;1670981;84;25337;-77
2022/02/12 05:19:12;;;;;;;7.25;3.77;;;;;;;-0.14;91.16;102174.34;1678464;84;26200;-77
2022/02/12 05:21:40;;;;;;;7.20;3.45;;;;;;;-0.14;91.04;102178.75;1635126;86;25737;-76
2022/02/12 05:24:07;;;;;;;10.23;3.30;;;;;;;-0.15;90.85;102183.64;1618794;87;27579;-77
2022/02/12 05:26:33;;;;;;;10.13;3.67;;;;;;;-0.19;90.92;102191.28;1620465;87;25744;-77
2022/02/12 05:29:01;;;;;;;10.28;3.70;;;;;;;-0.25;90.71;102195.56;1649202;86;25879;-77
2022/02/12 05:31:27;;;;;;;8.45;3.58;;;;;;;-0.27;90.89;102198.28;1653872;86;25751;-76
2022/02/12 05:33:53;;;;;;;7.42;3.55;;;;;;;-0.26;90.80;102199.14;1641175;86;26021;-76
2022/02/12 05:36:19;;;;;;;7.75;4.35;;;;;;;-0.29;90.74;102196.19;1625641;88;27532;-77
2022/02/12 05:38:46;;;;;;;12.63;4.50;;;;;;;-0.27;90.91;102202.23;1641128;85;25980;-77
2022/02/12 05:41:15;;;;;;;9.60;4.78;;;;;;;-0.26;90.82;102208.36;1647496;86;26010;-77
2022/02/12 05:43:43;;;;;;;7.35;4.22;;;;;;;-0.25;90.97;102210.90;1638002;86;26555;-77
2022/02/12 05:46:11;;;;;;;7.25;3.92;;;;;;;-0.23;91.04;102213.45;1636829;86;26363;-76
2022/02/12 05:48:37;;;;;;;10.35;4.60;;;;;;;-0.22;91.05;102217.34;1633437;87;27444;-77
2022/02/12 05:51:04;;;;;;;9.13;5.40;;;;;;;-0.20;90.92;102217.25;1637014;86;25767;-76
2022/02/12 05:53:30;;;;;;;9.83;5.67;;;;;;;-0.21;90.87;102218.16;1629670;87;25765;-77
2022/02/12 05:55:56;;;;;;;7.97;4.72;;;;;;;-0.23;90.73;102217.39;1634844;87;25875;-77
2022/02/12 05:58:23;;;;;;;10.25;5.75;;;;;;;-0.23;90.73;102220.03;1630935;87;25910;-77
2022/02/12 06:00:50;;;;;;;10.38;5.80;;;;;;;-0.28;90.73;102223.38;1677579;84;27556;-76
2022/02/12 06:03:17;;;;;;;9.08;6.08;;;;;;;-0.31;90.71;102225.70;1666700;84;26056;-76
2022/02/12 06:05:45;;;;;;;8.83;6.00;;;;;;;-0.30;90.84;102231.83;1673487;85;26549;-76
2022/02/12 06:08:13;;;;;;;13.28;6.33;;;;;;;-0.31;90.95;102238.86;1668522;84;25774;-77
2022/02/12 06:10:39;;;;;;;9.05;5.30;;;;;;;-0.29;91.01;102236.14;1639378;86;25845;-77
2022/02/12 06:13:06;;;;;;;11.95;6.45;;;;;;;-0.28;91.13;102233.91;1628468;87;27549;-77
2022/02/12 06:15:35;;;;;;;10.78;7.10;;;;;;;-0.25;91.06;102237.69;1614505;87;25812;-77
2022/02/12 06:18:00;;;;;;;12.63;6.10;;;;;;;-0.24;91.13;102242.04;1630828;87;25851;-77
2022/02/12 06:20:26;;;;;;;15.05;6.53;;;;;;;-0.23;90.94;102244.59;1640829;86;25843;-77
2022/02/12 06:22:52;;;;;;;12.00;6.40;;;;;;;-0.21;91.03;102242.72;1620063;87;25840;-76
2022/02/12 06:25:19;;;;;;;11.80;6.85;;;;;;;-0.20;90.97;102247.08;1629158;87;27540;-77
2022/02/12 06:27:46;;;;;;;9.98;6.28;;;;;;;-0.19;90.84;102251.39;1627704;86;25896;-76
2022/02/12 06:30:12;;;;;;;10.50;6.72;;;;;;;-0.24;90.66;102241.58;1635491;87;25779;-77
2022/02/12 06:32:38;;;;;;;9.60;6.05;;;;;;;-0.24;90.81;102245.98;1636106;87;26614;-76
2022/02/12 06:35:05;;;;;;;16.17;6.83;;;;;;;-0.24;90.84;102256.06;1637302;87;25307;-77
2022/02/12 06:37:31;;;;;;;13.13;6.90;;;;;;;-0.22;90.96;102254.66;1622479;87;28464;-77
2022/02/12 06:39:59;;;;;;;9.68;5.70;;;;;;;-0.20;91.03;102259.38;1671619;85;26494;-76
2022/02/12 06:42:25;;;;;;;13.32;6.12;;;;;;;-0.22;90.96;102261.25;1666799;85;26546;-77
2022/02/12 06:44:52;;;;;;;12.82;5.60;;;;;;;-0.23;90.92;102264.33;1666814;85;25783;-77
2022/02/12 06:47:18;;;;;;;12.73;6.00;;;;;;;-0.21;91.11;102269.52;1666742;85;25877;-77
2022/02/12 06:49:45;;;;;;;11.15;5.17;;;;;;;-0.23;91.03;102262.16;1666859;85;27472;-77
2022/02/12 06:52:11;;;;;;;8.73;5.12;;;;;;;-0.22;91.10;102263.42;1665416;85;25838;-77
2022/02/12 06:54:38;;;;;;;9.38;5.03;;;;;;;-0.21;91.03;102273.01;1661315;86;26017;-76
2022/02/12 06:57:04;;;;;;;9.63;4.70;;;;;;;-0.23;91.03;102279.27;1665170;86;25798;-76
2022/02/12 06:59:30;;;;;;;10.18;4.85;;;;;;;-0.24;91.15;102285.03;1665050;85;25879;-76
2022/02/12 07:01:57;;;;;;;9.45;4.22;;;;;;;-0.24;91.23;102292.93;1663953;85;27480;-76
2022/02/12 07:04:24;;;;;;;9.03;4.40;;;;;;;-0.24;91.24;102296.88;1664379;86;25736;-77
2022/02/12 07:06:50;;;;;;;14.03;5.17;;;;;;;-0.24;91.41;102310.05;1664534;85;26360;-77
2022/02/12 07:09:16;;;;;;;7.85;4.95;;;;;;;-0.22;91.52;102309.96;1664112;85;26386;-76
2022/02/12 07:11:43;;;;;;;7.83;4.60;;;;;;;-0.22;91.48;102316.55;1664196;86;25767;-77
2022/02/12 07:14:09;;;;;;;16.70;6.03;;;;;;;-0.21;91.53;102312.97;1664295;85;28298;-77
2022/02/12 07:16:35;;;;;;;14.00;6.15;;;;;;;-0.21;91.58;102313.83;1664121;85;26192;-77
2022/02/12 07:19:01;;;;;;;16.52;6.60;;;;;;;-0.19;91.65;102312.42;1664590;86;25610;-76
2022/02/12 07:21:28;;;;;;;21.07;7.65;;;;;;;-0.16;91.70;102321.50;1664637;86;27174;-76
2022/02/12 07:23:54;;;;;;;17.65;7.35;;;;;;;-0.15;91.76;102321.41;1665747;84;26086;-77
2022/02/12 07:26:22;;;;;;;16.07;7.92;;;;;;;-0.13;91.83;102322.19;1673682;85;27478;-77
2022/02/12 07:28:49;;;;;;;15.95;7.45;;;;;;;-0.08;91.95;102328.09;1666334;84;25328;-76
2022/02/12 07:31:16;;;;;;;13.53;7.05;;;;;;;-0.07;91.84;102335.53;1681311;84;26470;-76
2022/02/12 07:33:43;;;;;;;11.85;6.20;;;;;;;-0.04;91.96;102345.44;1637104;86;26427;-77
2022/02/12 07:36:11;;;;;;;12.35;5.53;;;;;;;0.00;92.02;102348.80;1605613;88;26118;-76
2022/02/12 07:38:38;;;;;;;15.93;6.87;;;;;;;0.04;92.08;102345.07;1617961;87;27648;-76
2022/02/12 07:41:08;;;;;;;14.90;6.53;;;;;;;0.06;91.93;102356.38;1621095;87;25843;-76
2022/02/12 07:43:35;;;;;;;13.27;6.23;;;;;;;0.10;91.98;102353.98;1634843;87;25886;-77
2022/02/12 07:46:03;;;;;;;13.50;7.12;;;;;;;0.10;91.80;102353.98;1641088;86;26608;-76
2022/02/12 07:48:29;;;;;;;14.47;7.30;;;;;;;0.15;91.95;102359.84;1636915;87;25879;-77
2022/02/12 07:50:55;;;;;;;17.10;7.92;;;;;;;0.16;91.83;102357.62;1604315;89;28517;-77
2022/02/12 07:53:22;;;;;;;13.70;7.85;;;;;;;0.18;91.71;102360.16;1618631;87;25804;-76
2022/02/12 07:55:48;;;;;;;13.10;7.15;;;;;;;0.22;91.71;102364.34;1637356;87;25827;-76
2022/02/12 07:58:14;;;;;;;27.30;12.65;;;;;;;0.26;91.78;102364.12;1609897;87;26549;-76
2022/02/12 08:00:41;;;;;;;22.00;9.55;;;;;;;0.32;91.76;102363.80;1634586;87;25334;-78
2022/02/12 08:03:07;;;;;;;25.10;14.43;;;;;;;0.38;91.71;102362.65;1620829;87;27631;-79
2022/02/12 08:05:33;;;;;;;18.10;10.10;;;;;;;0.41;91.47;102369.92;1611380;86;25992;-78
2022/02/12 08:08:03;;;;;;;19.23;13.13;;;;;;;0.44;91.33;102367.14;1634439;87;25912;-76
2022/02/12 08:13:15;;;;;;;16.65;10.75;;;;;;;0.52;91.24;102364.95;1636226;86;25945;-78
2022/02/12 08:15:41;;;;;;;23.60;11.63;;;;;;;0.57;91.06;102368.22;1636390;87;27533;-78
2022/02/12 08:18:07;;;;;;;17.35;9.70;;;;;;;0.60;91.01;102373.77;1612001;88;26655;-78
2022/02/12 08:20:34;;;;;;;15.85;10.30;;;;;;;0.63;91.07;102381.53;1634761;86;25950;-79
2022/02/12 08:23:00;;;;;;;18.62;10.82;;;;;;;0.67;90.91;102390.98;1602514;88;26020;-78
2022/02/12 08:25:26;;;;;;;20.08;12.13;;;;;;;0.70;90.66;102391.70;1618454;87;26081;-78
2022/02/12 08:27:52;;;;;;;26.95;12.78;;;;;;;0.74;90.55;102397.20;1632932;87;27457;-79
2022/02/12 08:30:19;;;;;;;20.50;11.00;;;;;;;0.81;90.68;102394.23;1634152;87;25325;-77
2022/02/12 08:32:45;;;;;;;19.15;10.90;;;;;;;0.85;90.32;102403.23;1633832;87;25949;-76
2022/02/12 08:35:13;;;;;;;19.50;11.12;;;;;;;0.86;90.04;102404.05;1610612;87;26580;-77
2022/02/12 08:37:42;;;;;;;16.42;9.15;;;;;;;0.91;90.08;102405.53;1611097;88;26031;-76
2022/02/12 08:40:13;;;;;;;18.17;10.38;;;;;;;0.95;89.84;102403.12;1610841;88;28258;-79
2022/02/12 08:42:41;;;;;;;21.97;10.25;;;;;;;0.98;89.59;102406.92;1610727;88;25858;-77
2022/02/12 08:45:09;;;;;;;16.73;9.08;;;;;;;1.05;89.66;102418.01;1611246;88;25894;-77
2022/02/12 08:47:36;;;;;;;15.08;8.83;;;;;;;1.10;89.56;102420.77;1611004;88;25850;-78
2022/02/12 08:50:07;;;;;;;21.35;10.03;;;;;;;1.16;89.49;102424.86;1611233;87;25785;-77
2022/02/12 08:52:34;;;;;;;21.07;9.70;;;;;;;1.21;89.44;102432.94;1610891;88;28372;-77
2022/02/12 08:55:04;;;;;;;18.62;11.05;;;;;;;1.26;89.15;102438.80;1616795;87;26676;-76
2022/02/12 08:57:31;;;;;;;23.55;13.03;;;;;;;1.29;89.07;102443.92;1622060;87;25862;-77
2022/02/12 08:59:57;;;;;;;18.00;10.03;;;;;;;1.35;89.32;102443.59;1645570;85;26068;-77
2022/02/12 09:02:24;;;;;;;20.43;11.33;;;;;;;1.42;88.99;102449.39;1630607;86;25905;-77
2022/02/12 09:04:50;;;;;;;18.57;11.33;;;;;;;1.48;89.17;102462.25;1639702;85;27534;-78
2022/02/12 09:07:16;;;;;;;17.30;11.05;;;;;;;1.54;88.77;102461.91;1633586;86;25934;-76
2022/02/12 09:09:42;;;;;;;17.15;9.98;;;;;;;1.55;88.20;102468.45;1633342;86;25828;-77
2022/02/12 09:12:12;;;;;;;21.62;9.63;;;;;;;1.58;87.98;102473.19;1634822;87;26590;-77
2022/02/12 09:14:39;;;;;;;22.83;9.40;;;;;;;1.62;88.09;102469.44;1635685;87;25860;-77
2022/02/12 09:17:05;;;;;;;14.33;9.30;;;;;;;1.64;87.73;102474.16;1630435;87;28063;-76
2022/02/12 09:19:34;;;;;;;24.45;11.93;;;;;;;1.68;87.04;102483.16;1609571;88;25876;-79
2022/02/12 09:22:00;;;;;;;31.75;17.00;;;;;;;1.67;87.25;102480.13;1635178;86;25818;-77
2022/02/12 09:24:27;;;;;;;27.95;16.00;;;;;;;1.70;87.13;102479.97;1634364;87;25942;-77
2022/02/12 09:26:53;;;;;;;20.90;11.55;;;;;;;1.76;87.42;102476.12;1641180;86;26073;-77
2022/02/12 09:29:19;;;;;;;18.67;10.45;;;;;;;1.81;87.54;102475.41;1633239;87;27702;-77
2022/02/12 09:31:45;;;;;;;14.43;8.88;;;;;;;1.86;86.63;102476.02;1630192;87;25810;-77
2022/02/12 09:34:12;;;;;;;17.55;9.60;;;;;;;1.86;86.71;102483.45;1636750;87;26126;-78
2022/02/12 09:36:39;;;;;;;15.32;7.75;;;;;;;1.91;87.05;102481.41;1636846;87;26649;-77
2022/02/12 09:39:08;;;;;;;12.03;6.95;;;;;;;1.95;86.63;102492.66;1636389;87;25735;-76
2022/02/12 09:41:35;;;;;;;15.15;8.15;;;;;;;1.99;86.18;102497.69;1637181;87;27485;-77
2022/02/12 09:44:01;;;;;;;17.60;8.93;;;;;;;1.99;85.64;102496.37;1636792;87;25770;-77
2022/02/12 09:46:49;;;;;;;14.63;9.08;;;;;;;2.02;85.78;102507.24;1613868;87;37239;-76
2022/02/12 09:49:16;;;;;;;19.62;10.70;;;;;;;2.04;85.57;102514.16;1650568;86;26002;-77
2022/02/12 09:51:44;;;;;;;26.40;16.07;;;;;;;2.10;86.30;102516.45;1634381;87;26184;-79
2022/02/12 09:54:10;;;;;;;19.80;13.28;;;;;;;2.17;85.99;102511.67;1634316;86;27999;-76
2022/02/12 09:56:37;;;;;;;13.90;9.18;;;;;;;2.23;85.88;102516.61;1650858;86;25938;-76
2022/02/12 09:59:04;;;;;;;16.02;11.08;;;;;;;2.28;85.40;102511.46;1630058;87;26425;-78
2022/02/12 10:01:30;;;;;;;16.50;10.78;;;;;;;2.29;84.42;102514.94;1618146;87;25833;-77
2022/02/12 10:03:56;;;;;;;16.32;10.95;;;;;;;2.29;83.92;102513.61;1648331;86;26187;-76
2022/02/12 10:06:44;;;;;;;18.12;12.40;;;;;;;2.29;83.94;102514.94;1612144;88;28135;-77
2022/02/12 10:09:11;;;;;;;13.65;10.08;;;;;;;2.31;83.74;102509.95;1610759;88;26290;-76
2022/02/12 10:11:48;;;;;;;14.05;10.15;;;;;;;2.32;82.52;102514.31;1618405;88;25835;-77
2022/02/12 10:14:22;;;;;;;15.68;10.45;;;;;;;2.34;82.35;102514.21;1616675;87;26665;-77
2022/02/12 10:17:02;;;;;;;60.30;32.63;;;;;;;2.37;83.19;102513.19;1619119;86;26113;-77
2022/02/12 10:19:44;;;;;;;46.02;23.05;;;;;;;2.42;83.26;102513.80;1632346;86;28302;-77
2022/02/12 10:22:18;;;;;;;25.17;12.47;;;;;;;2.48;83.34;102507.65;1624758;87;25748;-77
2022/02/12 10:24:50;;;;;;;29.10;14.58;;;;;;;2.50;82.39;102500.51;1635830;86;25822;-76
2022/02/12 10:27:22;;;;;;;23.67;12.73;;;;;;;2.51;82.08;102496.05;1643685;86;26501;-76
2022/02/12 10:29:49;;;;;;;16.55;9.03;;;;;;;2.52;81.02;102503.91;1615978;88;25803;-77
2022/02/12 10:32:21;;;;;;;16.17;8.88;;;;;;;2.54;81.59;102502.03;1633138;87;27480;-76
2022/02/12 10:34:50;;;;;;;17.73;7.28;;;;;;;2.59;80.54;102496.48;1633353;87;26473;-78
2022/02/12 10:37:22;;;;;;;18.67;11.35;;;;;;;2.62;81.55;102493.17;1633262;86;25846;-77
2022/02/12 10:39:55;;;;;;;16.67;7.15;;;;;;;2.68;81.36;102488.84;1640806;86;26515;-77
2022/02/12 10:42:24;;;;;;;68.25;22.22;;;;;;;2.71;80.96;102491.31;1640253;86;25948;-78
2022/02/12 10:44:52;;;;;;;22.42;13.98;;;;;;;2.74;80.96;102494.22;1637648;86;28373;-76
2022/02/12 10:47:22;;;;;;;13.22;9.28;;;;;;;2.79;80.34;102491.70;1637085;86;25817;-77
2022/02/12 10:49:50;;;;;;;17.87;7.35;;;;;;;2.82;80.76;102483.56;1643947;86;25791;-77
2022/02/12 10:52:18;;;;;;;12.88;5.58;;;;;;;2.88;81.03;102485.02;1634581;86;26467;-77
2022/02/12 10:54:48;;;;;;;13.50;4.78;;;;;;;2.93;80.13;102480.31;1635525;86;25837;-76
2022/02/12 10:57:16;;;;;;;13.45;5.85;;;;;;;2.92;79.37;102476.80;1637526;86;27474;-77
2022/02/12 10:59:44;;;;;;;32.00;15.00;;;;;;;2.94;79.39;102474.05;1632052;87;25875;-77
2022/02/12 11:02:17;;;;;;;58.63;23.52;;;;;;;2.97;79.36;102476.53;1576449;88;25914;-78
2022/02/12 11:04:49;;;;;;;78.90;30.23;;;;;;;2.99;79.54;102472.00;1604314;88;25781;-76
2022/02/12 11:07:17;;;;;;;45.43;23.92;;;;;;;3.03;78.39;102479.66;1589078;89;25948;-77
2022/02/12 11:09:46;;;;;;;224.32;70.17;;;;;;;3.04;78.07;102472.55;1596402;89;28083;-77
2022/02/12 11:12:15;;;;;;;52.80;24.65;;;;;;;3.04;77.60;102486.64;1618848;86;26121;-77
2022/02/12 11:14:47;;;;;;;14.40;8.03;;;;;;;3.05;77.91;102479.09;1616007;87;25856;-79
2022/02/12 11:17:18;;;;;;;16.73;7.12;;;;;;;3.06;76.81;102478.13;1602434;88;26469;-76
2022/02/12 11:19:47;;;;;;;14.58;7.97;;;;;;;3.06;77.28;102478.59;1601713;88;25942;-77
2022/02/12 11:22:14;;;;;;;27.55;14.35;;;;;;;3.09;77.09;102475.78;1612604;88;27466;-76
2022/02/12 11:24:47;;;;;;;17.57;8.60;;;;;;;3.10;76.93;102466.41;1586354;89;25848;-77
2022/02/12 11:27:29;;;;;;;11.05;6.10;;;;;;;3.13;77.20;102466.70;1603355;88;26025;-76
2022/02/12 11:30:15;;;;;;;15.83;6.22;;;;;;;3.14;77.29;102471.89;1609050;88;26603;-77
2022/02/12 11:32:44;;;;;;;9.10;4.42;;;;;;;3.15;77.08;102475.41;1617651;88;25989;-77
2022/02/12 11:35:17;;;;;;;13.98;5.25;;;;;;;3.17;76.05;102472.19;1589279;89;27655;-77
2022/02/12 11:37:48;;;;;;;7.95;4.15;;;;;;;3.21;76.13;102466.25;1602254;88;25943;-77